Αναφορές Αεροδρομίων

 

KSJC - San Jose, California, USA
Distance from station: ΒΑ 14km
Ενημερώθηκε: 21/01/2022 13:53
Αίθριος
Αίθριος
 Ανεμος από ΑΝΑ
Ανεμος: ΑΝΑ 6 km/h
Θερμοκρασία: 7°C
Σημείο Δρόσου: 4°C
Υγρασία: 81%
Βαρόμετρο: 1022.4 hPa
Clouds: Αίθριος
Visibility: 16 km
2022/01/21 11:53 KSJC 211153Z AUTO 12003KT 10SM CLR 07/04 A3019 RMK AO2 SLP223 T00670044 10117 20061 56016
KNUQ - Moffett Nas/Mtn, California, USA
Distance from station: Β 14km
Ενημερώθηκε: 21/01/2022 13:55

 
2022/01/21 11:55 KNUQ 211155Z AUTO RMK AO2 PNO PWINO TSNO
 
KPAO - Palo Alto, California, USA
Distance from station: ΒΒΔ 23km
Ενημερώθηκε: 20/01/2022 00:47
NOT Current
Αίθριος
Αίθριος
 Ανεμος από ΒΒΔ
Ανεμος: ΒΒΔ 15 km/h
Θερμοκρασία: 15°C
Σημείο Δρόσου: 8°C
Υγρασία: 63%
Βαρόμετρο: 1023 hPa
Clouds: Αίθριος
Visibility: 16 km
2022/01/19 22:47 KPAO 192247Z 33008KT 10SM SKC 15/08 A3021
KRHV - San Jose/Reid, California, USA
Distance from station: ΑΒΑ 19km
Ενημερώθηκε: 21/01/2022 03:47
NOT Current
Few Clouds
Few Clouds
 Ανεμος από calm
Ανεμος: Απνοια
Θερμοκρασία: 15°C
Σημείο Δρόσου: 8°C
Υγρασία: 63%
Βαρόμετρο: 1024.7 hPa
Clouds: Few Clouds
Visibility: 16 km
Cloud details: Few Clouds 3048 m
2022/01/21 01:47 KRHV 210147Z 00000KT 10SM FEW100 15/08 A3026
 
KOAK - Oakland, California, USA
Distance from station: ΒΒΔ 50km
Ενημερώθηκε: 21/01/2022 13:53
Αίθριος
Αίθριος
 Ανεμος από ΑΒΑ
Ανεμος: ΑΒΑ 7 km/h
Θερμοκρασία: 7°C
Wind Chill: 6°C
Σημείο Δρόσου: 6°C
Υγρασία: 93%
Βαρόμετρο: 1023.4 hPa
Clouds: Αίθριος
Visibility: 16 km
2022/01/21 11:53 KOAK 211153Z 06004KT 10SM CLR 07/06 A3022 RMK AO2 SLP231 T00720061 10106 20067 58009 $
KSQL - San Carlos Airpo, California, USA
Distance from station: ΒΔ 34km
Ενημερώθηκε: 21/01/2022 13:55
Αίθριος
Αίθριος
 Ανεμος από calm
Ανεμος: Απνοια
Θερμοκρασία: 8°C
Σημείο Δρόσου: 7°C
Υγρασία: 93%
Βαρόμετρο: 1023 hPa
Clouds: Αίθριος
Visibility: 16 km
2022/01/21 11:55 KSQL 211155Z AUTO 00000KT 10SM CLR 08/07 A3021 RMK AO2
 
KSFO - San Francisco, California, USA
Distance from station: ΒΔ 49km
Ενημερώθηκε: 21/01/2022 13:56
Αίθριος
Αίθριος
 Ανεμος από calm
Ανεμος: Απνοια
Θερμοκρασία: 8°C
Σημείο Δρόσου: 6°C
Υγρασία: 87%
Βαρόμετρο: 1022.7 hPa
Clouds: Αίθριος
Visibility: 16 km
2022/01/21 11:56 KSFO 211156Z 00000KT 10SM CLR 08/06 A3020 RMK AO2 SLP227 T00830061 10111 20078 58010
KE16 - San Martin, California, USA
Distance from station: ΑΝΑ 43km
Ενημερώθηκε: 21/01/2022 13:50
Αίθριος
Αίθριος
 Ανεμος από Β
Ανεμος: Β 6 km/h
Θερμοκρασία: 4°C
Σημείο Δρόσου: 4°C
Υγρασία: 100%
Βαρόμετρο: 1023 hPa
Clouds: Αίθριος
Visibility: 14 km
2022/01/21 11:50 KE16 211150Z AUTO 36003KT 9SM CLR 04/04 A3021 RMK AO2 PWINO PNO
 
KWVI - Watsonville, California, USA
Distance from station: ΝΝΑ 44km
Ενημερώθηκε: 21/01/2022 13:53
Αίθριος
Αίθριος
 Ανεμος από calm
Ανεμος: Απνοια
Θερμοκρασία: 6°C
Σημείο Δρόσου: 6°C
Υγρασία: 100%
Βαρόμετρο: 1021.7 hPa
Clouds: Αίθριος
Visibility: 16 km
2022/01/21 11:53 KWVI 211153Z AUTO 00000KT 10SM CLR 06/06 A3017 RMK AO2 SLP217 T00560056 10094 20050 58014
KHAF - Half Moon Bay, California, USA
Distance from station: ΔΒΔ 50km
Ενημερώθηκε: 21/01/2022 13:55
Αίθριος
Αίθριος
 Ανεμος από varies
Ανεμος: varies 7 km/h
Θερμοκρασία: 16°C
Σημείο Δρόσου: 6°C
Υγρασία: 52%
Βαρόμετρο: 1022 hPa
Clouds: Αίθριος
Visibility: 14 km
2022/01/21 11:55 KHAF 211155Z AUTO VRB04KT 9SM CLR 16/06 A3018 RMK AO2
 
KHWD - Hayward, California, USA
Distance from station: Β 44km
Ενημερώθηκε: 21/01/2022 13:54
Αίθριος
Αίθριος
 Ανεμος από Α
Ανεμος: Α 6 km/h
Θερμοκρασία: 8°C
Σημείο Δρόσου: 5°C
Υγρασία: 82%
Βαρόμετρο: 1022.7 hPa
Clouds: Αίθριος
Visibility: 14 km
2022/01/21 11:54 KHWD 211154Z AUTO 08003KT 9SM CLR 08/05 A3020 RMK AO2 SLP237 T00780050 10111 20072 58009
KLVK - Livermore, California, USA
Distance from station: ΒΒΑ 51km
Ενημερώθηκε: 21/01/2022 13:53
Mist, Αίθριος
Mist, Αίθριος
 Ανεμος από Α
Ανεμος: Α 6 km/h
Θερμοκρασία: 5°C
Σημείο Δρόσου: 4°C
Υγρασία: 93%
Βαρόμετρο: 1023.4 hPa
Περίληψη: Mist
Clouds: Αίθριος
Visibility: 10 km
2022/01/21 11:53 KLVK 211153Z AUTO 08003KT 6SM BR CLR 05/04 A3022 RMK AO2 SLP231 T00500039 10078 20039 56008